createdAt,value
2019-03-28T00:01:40.931Z,28.55
2019-03-28T00:04:07.432Z,22.27
2019-03-28T00:06:33.809Z,26.82
2019-03-28T00:09:00.068Z,30.15
2019-03-28T00:11:26.530Z,29.25
2019-03-28T00:13:52.933Z,28.95
2019-03-28T00:16:19.601Z,31.27
2019-03-28T00:18:46.027Z,30.27
2019-03-28T00:21:12.412Z,29.60
2019-03-28T00:23:46.446Z,27.77
2019-03-28T00:26:12.905Z,32.40
2019-03-28T00:28:39.262Z,28.85
2019-03-28T00:31:05.569Z,33.13
2019-03-28T00:33:31.874Z,24.67
2019-03-28T00:35:58.289Z,29.30
2019-03-28T00:38:25.161Z,35.20
2019-03-28T00:40:51.589Z,29.30
2019-03-28T00:43:17.893Z,31.42
2019-03-28T00:45:44.680Z,28.45
2019-03-28T00:48:10.973Z,29.45
2019-03-28T00:50:37.278Z,30.40
2019-03-28T00:53:03.681Z,29.72
2019-03-28T00:55:30.057Z,35.25
2019-03-28T00:57:56.352Z,32.28
2019-03-28T01:00:22.841Z,28.30
2019-03-28T01:02:49.258Z,30.37
2019-03-28T01:05:15.566Z,31.15
2019-03-28T01:07:41.876Z,30.62
2019-03-28T01:10:08.802Z,37.60
2019-03-28T01:12:35.227Z,26.87
2019-03-28T01:15:01.655Z,29.90
2019-03-28T01:17:27.940Z,24.30
2019-03-28T01:19:54.414Z,31.70
2019-03-28T01:22:20.682Z,26.70
2019-03-28T01:24:47.019Z,29.98
2019-03-28T01:27:13.368Z,23.95
2019-03-28T01:29:39.646Z,27.27
2019-03-28T01:32:05.964Z,25.70
2019-03-28T01:34:33.112Z,29.70
2019-03-28T01:36:59.505Z,28.73
2019-03-28T01:39:25.761Z,28.65
2019-03-28T01:41:52.091Z,27.37
2019-03-28T01:44:18.358Z,28.67
2019-03-28T01:46:44.658Z,30.92
2019-03-28T01:49:11.070Z,34.03
2019-03-28T01:51:37.451Z,35.65
2019-03-28T01:54:03.784Z,25.23
2019-03-28T01:56:30.185Z,28.73
2019-03-28T01:58:56.481Z,25.68
2019-03-28T02:01:22.869Z,30.62
2019-03-28T02:03:49.350Z,30.27
2019-03-28T02:06:15.708Z,36.98
2019-03-28T02:08:42.073Z,28.07
2019-03-28T02:11:08.482Z,34.15
2019-03-28T02:13:34.789Z,26.60
2019-03-28T02:16:01.151Z,37.80
2019-03-28T02:18:27.556Z,28.83
2019-03-28T02:20:54.140Z,32.03
2019-03-28T02:23:20.438Z,32.17
2019-03-28T02:25:46.766Z,31.35
2019-03-28T02:28:13.408Z,34.23
2019-03-28T02:30:39.878Z,27.70
2019-03-28T02:33:06.181Z,28.38
2019-03-28T02:35:32.759Z,36.75
2019-03-28T02:37:59.165Z,37.60
2019-03-28T02:40:25.453Z,35.23
2019-03-28T02:42:51.812Z,35.43
2019-03-28T02:45:18.481Z,36.83
2019-03-28T02:47:44.875Z,33.35
2019-03-28T02:50:11.542Z,33.63
2019-03-28T02:52:37.968Z,31.87
2019-03-28T02:55:05.481Z,30.02
2019-03-28T02:57:41.014Z,39.78
2019-03-28T03:00:00.009Z,27.45
2019-03-28T03:02:26.309Z,33.30
2019-03-28T03:04:52.593Z,31.27
2019-03-28T03:07:18.907Z,34.33
2019-03-28T03:09:45.179Z,39.50
2019-03-28T03:12:11.460Z,32.58
2019-03-28T03:14:37.850Z,35.30
2019-03-28T03:17:04.134Z,38.05
2019-03-28T03:19:30.707Z,33.23
2019-03-28T03:21:57.220Z,30.00
2019-03-28T03:24:23.614Z,32.55
2019-03-28T03:26:50.026Z,32.13
2019-03-28T03:29:16.308Z,39.48
2019-03-28T03:31:42.606Z,32.98
2019-03-28T03:34:09.007Z,37.73
2019-03-28T03:36:35.326Z,37.90
2019-03-28T03:39:01.793Z,29.55
2019-03-28T03:41:28.079Z,39.65
2019-03-28T03:43:54.794Z,34.63
2019-03-28T03:46:21.098Z,36.65
2019-03-28T03:48:47.361Z,43.00
2019-03-28T03:51:14.649Z,39.35
2019-03-28T03:53:41.120Z,39.60
2019-03-28T03:56:07.505Z,36.95
2019-03-28T03:58:33.912Z,37.80
2019-03-28T04:01:00.238Z,32.95
2019-03-28T04:03:26.805Z,32.03
2019-03-28T04:05:53.203Z,38.40
2019-03-28T04:08:19.647Z,36.55
2019-03-28T04:10:45.920Z,37.65
2019-03-28T04:13:12.208Z,31.60
2019-03-28T04:15:38.557Z,35.03
2019-03-28T04:18:05.067Z,45.38
2019-03-28T04:20:31.337Z,39.35
2019-03-28T04:22:57.639Z,40.35
2019-03-28T04:25:23.925Z,36.73
2019-03-28T04:27:50.341Z,32.55
2019-03-28T04:30:17.146Z,39.70
2019-03-28T04:32:43.626Z,37.33
2019-03-28T04:35:10.202Z,36.38
2019-03-28T04:37:36.532Z,42.08
2019-03-28T04:40:06.468Z,40.73
2019-03-28T04:42:33.027Z,41.50
2019-03-28T04:44:59.330Z,38.85
2019-03-28T04:47:25.639Z,40.70
2019-03-28T04:49:51.957Z,34.33
2019-03-28T04:52:18.403Z,38.45
2019-03-28T04:54:45.705Z,38.05
2019-03-28T04:57:14.347Z,43.50
2019-03-28T04:59:41.404Z,40.60
2019-03-28T05:02:08.062Z,45.65
2019-03-28T05:04:34.590Z,40.70
2019-03-28T05:07:01.130Z,52.03
2019-03-28T05:09:27.600Z,49.58
2019-03-28T05:11:54.105Z,43.73
2019-03-28T05:14:20.428Z,35.40
2019-03-28T05:16:46.793Z,47.48
2019-03-28T05:19:13.301Z,47.60
2019-03-28T05:21:39.605Z,40.45
2019-03-28T05:24:06.394Z,40.92
2019-03-28T05:26:32.778Z,49.58
2019-03-28T05:28:59.485Z,50.03
2019-03-28T05:31:26.131Z,40.48
2019-03-28T05:33:52.431Z,43.68
2019-03-28T05:36:18.802Z,47.13
2019-03-28T05:38:45.312Z,44.10
2019-03-28T05:41:11.609Z,49.98
2019-03-28T05:43:37.960Z,41.75
2019-03-28T05:46:04.388Z,48.38
2019-03-28T05:48:30.707Z,50.98
2019-03-28T05:50:57.906Z,51.18
2019-03-28T05:53:24.437Z,47.58
2019-03-28T05:55:50.758Z,50.98
2019-03-28T05:58:19.107Z,42.93
2019-03-28T06:00:45.412Z,46.50
2019-03-28T06:03:11.685Z,41.68
2019-03-28T06:05:38.169Z,38.42
2019-03-28T06:08:04.570Z,38.20
2019-03-28T06:10:31.036Z,39.50
2019-03-28T06:12:57.330Z,48.45
2019-03-28T06:15:27.011Z,47.60
2019-03-28T06:17:54.358Z,46.45
2019-03-28T06:20:20.800Z,51.05
2019-03-28T06:22:48.996Z,38.02
2019-03-28T06:25:16.299Z,52.50
2019-03-28T06:27:42.735Z,46.50
2019-03-28T06:30:09.557Z,45.63
2019-03-28T06:32:42.742Z,41.60
2019-03-28T06:35:07.064Z,45.55
2019-03-28T06:37:33.555Z,44.53
2019-03-28T06:39:59.866Z,44.60
2019-03-28T06:42:26.283Z,45.40
2019-03-28T06:44:52.600Z,45.85
2019-03-28T06:47:21.110Z,41.68
2019-03-28T06:49:47.399Z,50.10
2019-03-28T06:52:13.904Z,44.20
2019-03-28T06:54:40.321Z,46.33
2019-03-28T06:57:06.647Z,40.35
2019-03-28T06:59:37.700Z,39.35
2019-03-28T07:02:01.960Z,43.05
2019-03-28T07:04:28.736Z,46.35
2019-03-28T07:06:55.110Z,50.78
2019-03-28T07:09:24.051Z,50.43
2019-03-28T07:11:50.496Z,43.68
2019-03-28T07:14:16.949Z,52.35
2019-03-28T07:16:43.426Z,43.65
2019-03-28T07:19:09.835Z,57.17
2019-03-28T07:21:36.113Z,46.80
2019-03-28T07:24:02.916Z,45.03
2019-03-28T07:26:29.443Z,46.53
2019-03-28T07:28:55.746Z,50.30
2019-03-28T07:31:22.373Z,55.08
2019-03-28T07:33:53.483Z,41.35
2019-03-28T07:36:20.015Z,47.10
2019-03-28T07:38:46.368Z,41.08
2019-03-28T07:41:12.681Z,39.67
2019-03-28T07:43:39.267Z,34.35
2019-03-28T07:46:06.991Z,35.55
2019-03-28T07:48:33.261Z,30.10
2019-03-28T07:51:01.746Z,28.77
2019-03-28T07:53:28.065Z,26.30
2019-03-28T07:55:54.675Z,25.00
2019-03-28T07:58:21.198Z,26.52
2019-03-28T08:00:47.630Z,25.50
2019-03-28T08:03:14.171Z,33.15
2019-03-28T08:05:40.548Z,23.92
2019-03-28T08:08:06.936Z,25.70
2019-03-28T08:10:33.287Z,34.63
2019-03-28T08:12:59.605Z,25.20
2019-03-28T08:15:26.129Z,25.70
2019-03-28T08:17:52.815Z,29.48
2019-03-28T08:20:19.694Z,28.62
2019-03-28T08:22:45.995Z,32.00
2019-03-28T08:25:13.725Z,30.92
2019-03-28T08:27:40.561Z,31.93
2019-03-28T08:30:18.170Z,30.55
2019-03-28T08:32:39.833Z,37.25
2019-03-28T08:35:06.412Z,37.13
2019-03-28T08:37:34.326Z,38.80
2019-03-28T08:40:02.606Z,34.20
2019-03-28T08:42:29.246Z,42.13
2019-03-28T08:44:55.802Z,36.25
2019-03-28T08:47:22.823Z,39.00
2019-03-28T08:49:49.207Z,40.10
2019-03-28T08:52:15.467Z,39.05
2019-03-28T08:54:41.812Z,39.58
2019-03-28T08:57:08.165Z,48.63
2019-03-28T08:59:34.518Z,39.85
2019-03-28T09:02:01.198Z,34.78
2019-03-28T09:04:27.548Z,39.48
2019-03-28T09:06:54.063Z,41.18
2019-03-28T09:09:21.359Z,39.95
2019-03-28T09:11:48.010Z,32.83
2019-03-28T09:14:14.330Z,36.23
2019-03-28T09:16:40.619Z,36.63
2019-03-28T09:19:06.963Z,33.53
2019-03-28T09:21:33.280Z,36.25
2019-03-28T09:23:59.784Z,28.65
2019-03-28T09:26:26.035Z,34.43
2019-03-28T09:28:52.385Z,35.10
2019-03-28T09:31:20.167Z,35.30
2019-03-28T09:33:46.953Z,31.27
2019-03-28T09:36:13.216Z,30.80
2019-03-28T09:38:40.023Z,31.65
2019-03-28T09:41:06.669Z,30.25
2019-03-28T09:43:33.014Z,30.30
2019-03-28T09:46:00.551Z,26.02
2019-03-28T09:48:27.493Z,32.88
2019-03-28T09:50:54.014Z,25.08
2019-03-28T09:53:20.697Z,27.02
2019-03-28T09:55:46.960Z,27.95
2019-03-28T09:58:13.593Z,25.55
2019-03-28T10:00:41.091Z,28.57
2019-03-28T10:03:07.480Z,28.25
2019-03-28T10:05:33.929Z,23.02
2019-03-28T10:08:02.120Z,32.45
2019-03-28T10:10:28.418Z,29.98
2019-03-28T10:12:54.947Z,24.67
2019-03-28T10:15:21.446Z,30.90
2019-03-28T10:17:47.822Z,30.72
2019-03-28T10:20:14.345Z,28.57
2019-03-28T10:22:40.771Z,28.07
2019-03-28T10:25:07.733Z,30.77
2019-03-28T10:27:34.274Z,26.30
2019-03-28T10:30:00.702Z,30.12
2019-03-28T10:32:27.138Z,28.52
2019-03-28T10:34:53.557Z,24.30
2019-03-28T10:37:20.025Z,24.25
2019-03-28T10:39:46.308Z,26.37
2019-03-28T10:42:12.805Z,29.75
2019-03-28T10:44:39.342Z,25.20
2019-03-28T10:47:05.838Z,26.02
2019-03-28T10:49:34.143Z,18.73
2019-03-28T10:52:03.961Z,26.57
2019-03-28T10:54:29.275Z,22.90
2019-03-28T10:56:57.872Z,21.60
2019-03-28T10:59:25.372Z,18.73
2019-03-28T11:01:53.969Z,15.85
2019-03-28T11:04:20.459Z,21.97
2019-03-28T11:06:46.922Z,19.00
2019-03-28T11:09:13.400Z,19.35
2019-03-28T11:11:39.921Z,16.20
2019-03-28T11:14:06.339Z,18.30
2019-03-28T11:16:32.850Z,15.05
2019-03-28T11:18:59.078Z,13.78
2019-03-28T11:21:25.484Z,11.93
2019-03-28T11:23:51.887Z,14.30
2019-03-28T11:26:18.177Z,13.10
2019-03-28T11:28:44.651Z,14.20
2019-03-28T11:31:11.079Z,15.78
2019-03-28T11:33:37.611Z,11.95
2019-03-28T11:36:04.071Z,15.32
2019-03-28T11:38:31.626Z,12.05
2019-03-28T11:40:57.949Z,16.93
2019-03-28T11:43:24.475Z,17.07
2019-03-28T11:45:51.087Z,14.38
2019-03-28T11:48:17.506Z,13.98
2019-03-28T11:50:43.895Z,16.23
2019-03-28T11:53:10.304Z,14.47
2019-03-28T11:55:36.842Z,14.63
2019-03-28T11:58:03.509Z,14.73
2019-03-28T12:00:29.842Z,15.55
2019-03-28T12:02:56.121Z,13.03
2019-03-28T12:05:22.553Z,17.62
2019-03-28T12:07:48.949Z,12.80
2019-03-28T12:10:15.751Z,16.50
2019-03-28T12:12:42.028Z,12.15
2019-03-28T12:15:09.490Z,12.63
2019-03-28T12:17:35.890Z,12.98
2019-03-28T12:20:05.003Z,16.05
2019-03-28T12:22:31.579Z,15.18
2019-03-28T12:24:57.963Z,17.55
2019-03-28T12:27:27.349Z,15.53
2019-03-28T12:29:53.678Z,17.75
2019-03-28T12:32:20.039Z,15.88
2019-03-28T12:34:46.427Z,17.90
2019-03-28T12:37:12.883Z,13.50
2019-03-28T12:39:39.325Z,18.85
2019-03-28T12:42:05.935Z,16.62
2019-03-28T12:44:32.306Z,16.93
2019-03-28T12:46:58.803Z,19.32
2019-03-28T12:49:25.169Z,19.07
2019-03-28T12:51:52.616Z,19.48
2019-03-28T12:54:19.237Z,18.45
2019-03-28T12:56:45.876Z,16.93
2019-03-28T12:59:12.454Z,20.80
2019-03-28T13:01:38.871Z,19.73
2019-03-28T13:04:05.265Z,14.20
2019-03-28T13:06:31.688Z,17.80
2019-03-28T13:08:58.174Z,13.70
2019-03-28T13:11:24.565Z,16.15
2019-03-28T13:13:51.015Z,14.28
2019-03-28T13:16:17.639Z,13.90
2019-03-28T13:18:43.910Z,13.78
2019-03-28T13:21:13.641Z,12.95
2019-03-28T13:23:38.619Z,13.55
2019-03-28T13:26:05.121Z,12.98
2019-03-28T13:28:31.631Z,14.35
2019-03-28T13:30:58.015Z,12.05
2019-03-28T13:33:24.393Z,14.85
2019-03-28T13:35:50.889Z,14.30
2019-03-28T13:38:17.257Z,15.68
2019-03-28T13:40:44.039Z,12.40
2019-03-28T13:43:10.586Z,12.85
2019-03-28T13:45:36.940Z,13.95
2019-03-28T13:48:03.506Z,13.10
2019-03-28T13:50:29.995Z,15.30
2019-03-28T13:52:56.336Z,14.93
2019-03-28T13:55:22.743Z,17.80
2019-03-28T13:57:52.095Z,14.93
2019-03-28T14:00:20.959Z,15.38
2019-03-28T14:02:57.117Z,12.20
2019-03-28T14:05:16.356Z,16.30
2019-03-28T14:07:43.200Z,15.48
2019-03-28T14:10:09.659Z,16.93
2019-03-28T14:12:36.072Z,19.17
2019-03-28T14:15:04.406Z,17.85
2019-03-28T14:17:35.092Z,15.20
2019-03-28T14:20:02.605Z,17.27
2019-03-28T14:22:28.858Z,17.25
2019-03-28T14:24:55.516Z,14.50
2019-03-28T14:27:22.055Z,18.65
2019-03-28T14:29:48.404Z,18.07
2019-03-28T14:32:14.914Z,17.27
2019-03-28T14:34:41.327Z,17.45
2019-03-28T14:37:07.585Z,17.23
2019-03-28T14:39:33.884Z,16.30
2019-03-28T14:42:00.129Z,16.50
2019-03-28T14:44:26.833Z,15.80
2019-03-28T14:46:53.092Z,17.27
2019-03-28T14:49:19.359Z,15.78
2019-03-28T14:51:45.849Z,13.32
2019-03-28T14:54:12.291Z,16.35
2019-03-28T14:56:39.723Z,14.03
2019-03-28T14:59:07.751Z,16.35
2019-03-28T15:01:34.132Z,15.53
2019-03-28T15:04:00.454Z,14.60
2019-03-28T15:06:26.823Z,17.70
2019-03-28T15:08:53.201Z,16.17
2019-03-28T15:11:19.721Z,19.87
2019-03-28T15:13:46.221Z,15.48
2019-03-28T15:16:12.751Z,16.05
2019-03-28T15:18:38.984Z,17.07
2019-03-28T15:21:05.402Z,13.20
2019-03-28T15:23:31.885Z,17.87
2019-03-28T15:25:58.171Z,16.55
2019-03-28T15:28:24.555Z,15.30
2019-03-28T15:30:50.948Z,13.80
2019-03-28T15:33:17.514Z,12.55
2019-03-28T15:35:43.942Z,14.90
2019-03-28T15:38:10.356Z,14.10
2019-03-28T15:40:36.878Z,13.68
2019-03-28T15:43:03.257Z,14.75
2019-03-28T15:45:29.761Z,14.05
2019-03-28T15:47:56.156Z,15.98
2019-03-28T15:50:22.861Z,14.38
2019-03-28T15:52:49.331Z,14.53
2019-03-28T15:55:16.184Z,14.73
2019-03-28T15:57:42.559Z,18.23
2019-03-28T16:00:10.032Z,17.30
2019-03-28T16:02:36.380Z,14.33
2019-03-28T16:05:04.864Z,13.58
2019-03-28T16:07:31.469Z,14.40
2019-03-28T16:09:57.871Z,13.75
2019-03-28T16:12:24.280Z,13.98
2019-03-28T16:14:50.683Z,13.90
2019-03-28T16:17:17.197Z,14.38
2019-03-28T16:19:45.118Z,9.55
2019-03-28T16:22:12.022Z,11.95
2019-03-28T16:24:38.268Z,9.88
2019-03-28T16:27:04.616Z,10.98
2019-03-28T16:29:30.964Z,14.10
2019-03-28T16:31:57.503Z,11.97
2019-03-28T16:34:23.759Z,19.45
2019-03-28T16:36:50.164Z,11.05
2019-03-28T16:39:16.516Z,13.13
2019-03-28T16:41:42.980Z,15.90
2019-03-28T16:44:09.591Z,13.43
2019-03-28T16:46:35.879Z,14.07
2019-03-28T16:49:05.642Z,11.57
2019-03-28T16:51:31.923Z,12.05
2019-03-28T16:53:58.307Z,13.93
2019-03-28T16:56:26.615Z,12.00
2019-03-28T16:58:55.383Z,13.10
2019-03-28T17:01:21.132Z,8.55
2019-03-28T17:03:47.527Z,8.13
2019-03-28T17:06:13.962Z,10.32
2019-03-28T17:08:43.577Z,12.20
2019-03-28T17:11:12.152Z,9.25
2019-03-28T17:13:38.220Z,9.98
2019-03-28T17:16:04.747Z,12.25
2019-03-28T17:18:31.386Z,10.72
2019-03-28T17:20:57.952Z,13.28
2019-03-28T17:23:24.287Z,11.08
2019-03-28T17:25:50.664Z,13.15
2019-03-28T17:28:17.207Z,12.75
2019-03-28T17:30:43.685Z,15.90
2019-03-28T17:33:10.581Z,11.53
2019-03-28T17:35:37.090Z,11.18
2019-03-28T17:38:03.491Z,13.00
2019-03-28T17:40:29.926Z,11.35
2019-03-28T17:42:56.172Z,9.50
2019-03-28T17:45:22.603Z,16.00
2019-03-28T17:47:48.821Z,12.68
2019-03-28T17:50:15.948Z,16.82
2019-03-28T17:52:42.566Z,13.03
2019-03-28T17:55:09.061Z,12.82
2019-03-28T17:57:35.390Z,12.80
2019-03-28T18:00:03.662Z,11.30
2019-03-28T18:02:30.046Z,15.20
2019-03-28T18:05:08.526Z,13.93
2019-03-28T18:07:24.481Z,13.93
2019-03-28T18:09:50.865Z,13.28
2019-03-28T18:12:17.110Z,14.20
2019-03-28T18:14:43.395Z,13.40
2019-03-28T18:17:09.761Z,17.77
2019-03-28T18:19:36.495Z,11.15
2019-03-28T18:22:04.078Z,12.78
2019-03-28T18:24:30.667Z,12.70
2019-03-28T18:26:56.917Z,14.13
2019-03-28T18:29:23.293Z,12.95
2019-03-28T18:31:51.785Z,11.45
2019-03-28T18:34:17.620Z,14.78
2019-03-28T18:36:47.676Z,12.13
2019-03-28T18:39:14.007Z,15.28
2019-03-28T18:41:40.274Z,16.15
2019-03-28T18:44:06.624Z,10.53
2019-03-28T18:46:33.229Z,12.70
2019-03-28T18:48:59.527Z,10.63
2019-03-28T18:51:25.829Z,15.32
2019-03-28T18:53:52.135Z,15.23
2019-03-28T18:56:18.525Z,10.68
2019-03-28T18:58:50.711Z,10.98
2019-03-28T19:01:17.197Z,15.80
2019-03-28T19:03:44.235Z,14.23
2019-03-28T19:06:15.086Z,11.85
2019-03-28T19:08:44.834Z,13.80
2019-03-28T19:11:17.127Z,17.25
2019-03-28T19:13:43.525Z,13.38
2019-03-28T19:16:10.003Z,14.30
2019-03-28T19:18:36.376Z,15.30
2019-03-28T19:21:05.041Z,14.98
2019-03-28T19:23:31.301Z,14.38
2019-03-28T19:25:58.345Z,11.88
2019-03-28T19:28:29.120Z,12.37
2019-03-28T19:30:55.673Z,15.40
2019-03-28T19:33:22.057Z,20.17
2019-03-28T19:35:49.678Z,12.20
2019-03-28T19:38:16.807Z,16.37
2019-03-28T19:40:43.476Z,12.55
2019-03-28T19:43:20.473Z,16.50
2019-03-28T19:45:40.018Z,16.23
2019-03-28T19:48:07.878Z,19.80
2019-03-28T19:50:34.597Z,17.92
2019-03-28T19:53:03.417Z,16.87
2019-03-28T19:55:29.793Z,16.27
2019-03-28T19:57:56.164Z,16.32
2019-03-28T20:00:22.553Z,15.48
2019-03-28T20:02:49.075Z,11.93
2019-03-28T20:05:15.500Z,19.55
2019-03-28T20:07:45.617Z,16.50
2019-03-28T20:10:16.659Z,15.78
2019-03-28T20:12:39.128Z,16.95
2019-03-28T20:15:08.087Z,15.30
2019-03-28T20:17:34.747Z,14.47
2019-03-28T20:20:03.330Z,14.03
2019-03-28T20:22:30.782Z,11.05
2019-03-28T20:24:58.373Z,12.10
2019-03-28T20:27:24.969Z,14.38
2019-03-28T20:29:51.666Z,14.20
2019-03-28T20:32:18.111Z,14.78
2019-03-28T20:34:44.765Z,18.05
2019-03-28T20:37:11.758Z,14.75
2019-03-28T20:39:38.365Z,16.17
2019-03-28T20:42:04.698Z,18.07
2019-03-28T20:44:31.228Z,16.62
2019-03-28T20:46:58.891Z,14.73
2019-03-28T20:49:25.590Z,15.63
2019-03-28T20:51:54.452Z,18.35
2019-03-28T20:54:21.151Z,18.48
2019-03-28T20:56:47.554Z,15.68
2019-03-28T20:59:13.804Z,15.78
2019-03-28T21:01:42.524Z,20.08
2019-03-28T21:04:10.379Z,15.18
2019-03-28T21:06:37.637Z,16.32
2019-03-28T21:09:05.406Z,16.97
2019-03-28T21:11:31.827Z,18.62
2019-03-28T21:13:58.314Z,17.57
2019-03-28T21:16:24.589Z,16.40
2019-03-28T21:18:51.028Z,18.82
2019-03-28T21:21:17.400Z,15.83
2019-03-28T21:23:43.800Z,16.15
2019-03-28T21:26:10.072Z,20.48
2019-03-28T21:28:47.094Z,17.67
2019-03-28T21:31:05.726Z,16.35
2019-03-28T21:33:32.093Z,15.50
2019-03-28T21:35:58.382Z,17.10
2019-03-28T21:38:24.975Z,15.80
2019-03-28T21:40:51.508Z,14.70
2019-03-28T21:43:17.992Z,14.15
2019-03-28T21:45:44.421Z,14.90
2019-03-28T21:48:10.789Z,15.63
2019-03-28T21:50:38.870Z,18.30
2019-03-28T21:53:05.202Z,15.30
2019-03-28T21:55:31.696Z,14.63
2019-03-28T21:58:01.001Z,13.70
2019-03-28T22:00:27.708Z,16.65
2019-03-28T22:02:54.254Z,15.53
2019-03-28T22:05:20.506Z,15.18
2019-03-28T22:07:49.241Z,15.58
2019-03-28T22:10:17.049Z,17.10
2019-03-28T22:12:43.777Z,16.07
2019-03-28T22:15:10.409Z,16.15
2019-03-28T22:17:38.795Z,14.18
2019-03-28T22:20:06.288Z,13.15
2019-03-28T22:22:32.695Z,17.75
2019-03-28T22:25:19.146Z,15.13
2019-03-28T22:27:47.340Z,12.85
2019-03-28T22:30:14.089Z,14.33
2019-03-28T22:32:40.451Z,16.37
2019-03-28T22:35:07.047Z,18.07
2019-03-28T22:37:33.548Z,13.00
2019-03-28T22:39:59.835Z,17.77
2019-03-28T22:42:29.232Z,17.95
2019-03-28T22:44:55.725Z,19.40
2019-03-28T22:47:22.065Z,19.00
2019-03-28T22:49:48.313Z,17.85
2019-03-28T22:52:14.582Z,15.48
2019-03-28T22:54:41.154Z,17.50
2019-03-28T22:57:07.420Z,16.80
2019-03-28T22:59:33.833Z,15.75
2019-03-28T23:02:00.334Z,14.30
2019-03-28T23:04:26.808Z,15.55
2019-03-28T23:06:53.177Z,14.30
2019-03-28T23:09:19.577Z,14.93
2019-03-28T23:11:45.889Z,14.98
2019-03-28T23:14:12.341Z,16.67
2019-03-28T23:16:38.858Z,13.55
2019-03-28T23:19:05.945Z,16.48
2019-03-28T23:21:32.397Z,15.72
2019-03-28T23:23:58.654Z,18.20
2019-03-28T23:26:25.031Z,14.33
2019-03-28T23:28:51.385Z,16.62
2019-03-28T23:31:17.650Z,15.65
2019-03-28T23:33:43.891Z,15.20
2019-03-28T23:36:10.264Z,17.62
2019-03-28T23:38:36.801Z,17.70
2019-03-28T23:41:03.168Z,16.65
2019-03-28T23:43:29.425Z,17.25
2019-03-28T23:45:55.812Z,14.87
2019-03-28T23:48:22.089Z,16.52
2019-03-28T23:50:48.553Z,15.40
2019-03-28T23:53:14.790Z,17.57
2019-03-28T23:55:41.169Z,16.05
2019-03-28T23:58:07.443Z,16.97
